Tropical Cyclones
[Index]
Main Index Home Page Stock Weather Photos Extreme Storms Discussion Storm News and Storm Chasing Reports Tropical Cyclones / Hurricanes / Typhoons Weather Data and Links Wild Fires / Bushfires Weather Observation Techniques Weather Picture Catalogue Tornado Pictures and Reports Stock Video Footage and DVDs for sale
Season 1999-2000 Tropical Cyclone JO Track Map
Season 1999-2000 Summaries: [BoM-AU] [JTWC-AU] [JTWC-SIO] [JTWC-SPAC] [JTWC-SH]
<<- Previous TC | JTWC 1999-2000 Season | Next TC ->>

click for intensity scale information  Lat/long Grid: Show Hide

 Date Labels: Show Hide

Joint Typhoon Warning Centre Cyclone Data

Name: JO

23 Jan 2000 00:00 UTC to 28 Jan 2000 06:00 UTC

    date/time    lat    long     hPa   cat  kts
2000-01-23 00   14.5   171.7                  25          
2000-01-23 06   15.2   172.3                  25          
2000-01-23 12   16.1   172.6                  30          
2000-01-23 18   17.0   172.8                  30          
2000-01-24 00   17.8   173.1            1     40          
2000-01-24 06   18.4   173.3            1     40          
2000-01-24 12   19.1   173.5            1     45          
2000-01-24 18   19.7   173.8            1     50          
2000-01-25 00   20.4   174.3            1     50          
2000-01-25 06   21.0   174.7            2     55          
2000-01-25 12   21.6   175.1            2     60          
2000-01-25 18   22.1   175.7            2     65          
2000-01-26 00   23.0   176.7            2     60          
2000-01-26 06   24.2   177.7            2     60          
2000-01-26 12   25.4   178.9            2     60          
2000-01-26 18   26.5   179.7W           2     65          
2000-01-27 00   27.4   178.3W           2     60          
2000-01-27 06   28.2   176.6W           2     55          
2000-01-27 12   29.2   173.9W                 35          
2000-01-27 18   30.2   171.0W                 30          
2000-01-28 00   31.4   168.1W                 25          
2000-01-28 06   32.8   164.7W                 25          
Winds are 1-min average.

Tropical cyclone tracks developed by Michael Bath using data from the Joint Typhoon Warning Centre Best Tracks and Google Maps.


[Australian Severe Weather index] [Copyright Notice] [Email Contacts] [Search This Site] [Privacy Policy]
Document: tropical_cyclone_jo.htm Updated: 18 September 2016